sensor_id;sensor_type;location;lat;lon;timestamp;P1;durP1;ratioP1;P2;durP2;ratioP2
40945;SDS011;55635;50.264;11.918;2024-02-15T00:02:13;4.45;;;4.05;;
40945;SDS011;55635;50.264;11.918;2024-02-15T00:04:54;4.60;;;3.92;;
40945;SDS011;55635;50.264;11.918;2024-02-15T00:07:36;4.13;;;3.72;;
40945;SDS011;55635;50.264;11.918;2024-02-15T00:10:17;3.85;;;3.42;;
40945;SDS011;55635;50.264;11.918;2024-02-15T00:13:01;3.55;;;3.25;;
40945;SDS011;55635;50.264;11.918;2024-02-15T00:15:42;3.25;;;2.97;;
40945;SDS011;55635;50.264;11.918;2024-02-15T00:18:23;4.03;;;3.63;;
40945;SDS011;55635;50.264;11.918;2024-02-15T00:21:04;3.42;;;3.13;;
40945;SDS011;55635;50.264;11.918;2024-02-15T00:23:46;3.00;;;2.75;;
40945;SDS011;55635;50.264;11.918;2024-02-15T00:26:27;3.75;;;3.15;;
40945;SDS011;55635;50.264;11.918;2024-02-15T00:29:08;4.53;;;3.17;;
40945;SDS011;55635;50.264;11.918;2024-02-15T00:31:50;2.75;;;2.55;;
40945;SDS011;55635;50.264;11.918;2024-02-15T00:34:31;2.95;;;2.70;;
40945;SDS011;55635;50.264;11.918;2024-02-15T00:37:12;2.60;;;2.40;;
40945;SDS011;55635;50.264;11.918;2024-02-15T00:39:53;2.85;;;2.55;;
40945;SDS011;55635;50.264;11.918;2024-02-15T00:42:34;2.83;;;2.63;;
40945;SDS011;55635;50.264;11.918;2024-02-15T00:45:15;2.92;;;2.72;;
40945;SDS011;55635;50.264;11.918;2024-02-15T00:47:56;3.00;;;2.75;;
40945;SDS011;55635;50.264;11.918;2024-02-15T00:50:38;3.00;;;2.80;;
40945;SDS011;55635;50.264;11.918;2024-02-15T00:53:19;3.45;;;2.70;;
40945;SDS011;55635;50.264;11.918;2024-02-15T00:56:00;2.72;;;2.53;;
40945;SDS011;55635;50.264;11.918;2024-02-15T00:58:41;3.00;;;2.80;;
40945;SDS011;55635;50.264;11.918;2024-02-15T01:01:23;2.72;;;2.53;;
40945;SDS011;55635;50.264;11.918;2024-02-15T01:04:04;3.22;;;2.92;;
40945;SDS011;55635;50.264;11.918;2024-02-15T01:06:46;3.35;;;3.05;;
40945;SDS011;55635;50.264;11.918;2024-02-15T01:09:27;3.40;;;3.08;;
40945;SDS011;55635;50.264;11.918;2024-02-15T01:12:09;3.38;;;3.08;;
40945;SDS011;55635;50.264;11.918;2024-02-15T01:14:50;3.05;;;2.75;;
40945;SDS011;55635;50.264;11.918;2024-02-15T01:17:31;3.08;;;2.75;;
40945;SDS011;55635;50.264;11.918;2024-02-15T01:20:13;3.25;;;2.92;;
40945;SDS011;55635;50.264;11.918;2024-02-15T01:22:53;2.80;;;2.60;;
40945;SDS011;55635;50.264;11.918;2024-02-15T01:25:35;3.13;;;2.80;;
40945;SDS011;55635;50.264;11.918;2024-02-15T01:28:16;2.88;;;2.67;;
40945;SDS011;55635;50.264;11.918;2024-02-15T01:30:58;3.22;;;2.90;;
40945;SDS011;55635;50.264;11.918;2024-02-15T01:33:42;2.90;;;2.70;;
40945;SDS011;55635;50.264;11.918;2024-02-15T01:36:24;2.50;;;2.30;;
40945;SDS011;55635;50.264;11.918;2024-02-15T01:39:06;2.50;;;2.22;;
40945;SDS011;55635;50.264;11.918;2024-02-15T01:41:48;2.75;;;2.50;;
40945;SDS011;55635;50.264;11.918;2024-02-15T01:44:31;3.33;;;3.03;;
40945;SDS011;55635;50.264;11.918;2024-02-15T01:47:12;2.50;;;2.30;;
40945;SDS011;55635;50.264;11.918;2024-02-15T01:49:53;2.80;;;2.53;;
40945;SDS011;55635;50.264;11.918;2024-02-15T01:52:34;2.65;;;2.45;;
40945;SDS011;55635;50.264;11.918;2024-02-15T01:55:15;2.53;;;2.33;;
40945;SDS011;55635;50.264;11.918;2024-02-15T01:57:58;2.95;;;2.65;;
40945;SDS011;55635;50.264;11.918;2024-02-15T02:00:40;2.92;;;2.60;;
40945;SDS011;55635;50.264;11.918;2024-02-15T02:03:22;3.42;;;2.50;;
40945;SDS011;55635;50.264;11.918;2024-02-15T02:06:03;3.05;;;2.80;;
40945;SDS011;55635;50.264;11.918;2024-02-15T02:08:45;3.17;;;2.88;;
40945;SDS011;55635;50.264;11.918;2024-02-15T02:11:25;3.30;;;2.60;;
40945;SDS011;55635;50.264;11.918;2024-02-15T02:14:06;4.05;;;2.90;;
40945;SDS011;55635;50.264;11.918;2024-02-15T02:16:49;2.50;;;2.30;;
40945;SDS011;55635;50.264;11.918;2024-02-15T02:19:30;3.78;;;2.85;;
40945;SDS011;55635;50.264;11.918;2024-02-15T02:22:11;3.88;;;2.55;;
40945;SDS011;55635;50.264;11.918;2024-02-15T02:25:00;3.22;;;2.92;;
40945;SDS011;55635;50.264;11.918;2024-02-15T02:27:48;3.50;;;2.72;;
40945;SDS011;55635;50.264;11.918;2024-02-15T02:30:30;3.72;;;3.35;;
40945;SDS011;55635;50.264;11.918;2024-02-15T02:33:11;4.80;;;3.92;;
40945;SDS011;55635;50.264;11.918;2024-02-15T02:36:01;4.30;;;3.22;;
40945;SDS011;55635;50.264;11.918;2024-02-15T02:38:43;3.97;;;3.58;;
40945;SDS011;55635;50.264;11.918;2024-02-15T02:41:25;4.07;;;3.53;;
40945;SDS011;55635;50.264;11.918;2024-02-15T02:44:08;4.60;;;3.85;;
40945;SDS011;55635;50.264;11.918;2024-02-15T02:46:49;6.15;;;3.97;;
40945;SDS011;55635;50.264;11.918;2024-02-15T02:49:30;6.03;;;4.45;;
40945;SDS011;55635;50.264;11.918;2024-02-15T02:52:11;5.35;;;4.38;;
40945;SDS011;55635;50.264;11.918;2024-02-15T02:54:52;5.57;;;4.85;;
40945;SDS011;55635;50.264;11.918;2024-02-15T02:57:34;6.57;;;5.05;;
40945;SDS011;55635;50.264;11.918;2024-02-15T03:00:19;7.25;;;4.90;;
40945;SDS011;55635;50.264;11.918;2024-02-15T03:03:03;8.88;;;5.93;;
40945;SDS011;55635;50.264;11.918;2024-02-15T03:05:45;9.15;;;5.75;;
40945;SDS011;55635;50.264;11.918;2024-02-15T03:08:26;10.15;;;5.72;;
40945;SDS011;55635;50.264;11.918;2024-02-15T03:11:07;11.13;;;5.82;;
40945;SDS011;55635;50.264;11.918;2024-02-15T03:13:49;9.73;;;6.50;;
40945;SDS011;55635;50.264;11.918;2024-02-15T03:16:31;12.88;;;6.93;;
40945;SDS011;55635;50.264;11.918;2024-02-15T03:19:12;16.65;;;8.07;;
40945;SDS011;55635;50.264;11.918;2024-02-15T03:21:54;15.40;;;8.18;;
40945;SDS011;55635;50.264;11.918;2024-02-15T03:24:35;21.33;;;9.45;;
40945;SDS011;55635;50.264;11.918;2024-02-15T03:27:17;20.60;;;10.02;;
40945;SDS011;55635;50.264;11.918;2024-02-15T03:29:58;26.00;;;10.15;;
40945;SDS011;55635;50.264;11.918;2024-02-15T03:32:40;23.50;;;9.95;;
40945;SDS011;55635;50.264;11.918;2024-02-15T03:35:22;35.30;;;12.02;;
40945;SDS011;55635;50.264;11.918;2024-02-15T03:38:05;38.78;;;12.00;;
40945;SDS011;55635;50.264;11.918;2024-02-15T03:40:46;35.92;;;12.57;;
40945;SDS011;55635;50.264;11.918;2024-02-15T03:43:27;47.30;;;13.68;;
40945;SDS011;55635;50.264;11.918;2024-02-15T03:46:08;56.15;;;13.48;;
40945;SDS011;55635;50.264;11.918;2024-02-15T03:48:53;43.03;;;14.52;;
40945;SDS011;55635;50.264;11.918;2024-02-15T03:51:36;45.35;;;15.32;;
40945;SDS011;55635;50.264;11.918;2024-02-15T03:54:17;44.03;;;13.68;;
40945;SDS011;55635;50.264;11.918;2024-02-15T03:56:58;43.15;;;13.88;;
40945;SDS011;55635;50.264;11.918;2024-02-15T03:59:39;45.78;;;15.57;;
40945;SDS011;55635;50.264;11.918;2024-02-15T04:02:21;45.10;;;14.90;;
40945;SDS011;55635;50.264;11.918;2024-02-15T04:05:07;47.35;;;15.05;;
40945;SDS011;55635;50.264;11.918;2024-02-15T04:07:50;44.60;;;15.30;;
40945;SDS011;55635;50.264;11.918;2024-02-15T04:10:31;35.25;;;12.35;;
40945;SDS011;55635;50.264;11.918;2024-02-15T04:13:12;32.25;;;13.10;;
40945;SDS011;55635;50.264;11.918;2024-02-15T04:15:53;34.13;;;12.90;;
40945;SDS011;55635;50.264;11.918;2024-02-15T04:18:35;25.60;;;11.73;;
40945;SDS011;55635;50.264;11.918;2024-02-15T04:21:17;27.90;;;13.00;;
40945;SDS011;55635;50.264;11.918;2024-02-15T04:23:59;28.70;;;12.75;;
40945;SDS011;55635;50.264;11.918;2024-02-15T04:26:41;24.98;;;11.70;;
40945;SDS011;55635;50.264;11.918;2024-02-15T04:29:22;23.17;;;12.43;;
40945;SDS011;55635;50.264;11.918;2024-02-15T04:32:03;32.55;;;13.55;;
40945;SDS011;55635;50.264;11.918;2024-02-15T04:34:44;28.85;;;13.32;;
40945;SDS011;55635;50.264;11.918;2024-02-15T04:37:26;34.35;;;14.48;;
40945;SDS011;55635;50.264;11.918;2024-02-15T04:40:12;22.45;;;11.40;;
40945;SDS011;55635;50.264;11.918;2024-02-15T04:42:53;26.15;;;12.45;;
40945;SDS011;55635;50.264;11.918;2024-02-15T04:45:35;29.80;;;13.63;;
40945;SDS011;55635;50.264;11.918;2024-02-15T04:48:16;35.92;;;13.90;;
40945;SDS011;55635;50.264;11.918;2024-02-15T04:50:59;41.75;;;15.23;;
40945;SDS011;55635;50.264;11.918;2024-02-15T04:53:40;36.28;;;14.60;;
40945;SDS011;55635;50.264;11.918;2024-02-15T04:56:21;39.60;;;14.75;;
40945;SDS011;55635;50.264;11.918;2024-02-15T04:59:03;40.33;;;15.73;;
40945;SDS011;55635;50.264;11.918;2024-02-15T05:01:44;34.00;;;14.75;;
40945;SDS011;55635;50.264;11.918;2024-02-15T05:04:26;37.58;;;16.30;;
40945;SDS011;55635;50.264;11.918;2024-02-15T05:07:07;27.23;;;13.52;;
40945;SDS011;55635;50.264;11.918;2024-02-15T05:09:51;29.27;;;13.70;;
40945;SDS011;55635;50.264;11.918;2024-02-15T05:12:34;28.65;;;13.80;;
40945;SDS011;55635;50.264;11.918;2024-02-15T05:15:17;32.03;;;13.45;;
40945;SDS011;55635;50.264;11.918;2024-02-15T05:17:58;31.95;;;13.77;;
40945;SDS011;55635;50.264;11.918;2024-02-15T05:20:41;28.92;;;13.82;;
40945;SDS011;55635;50.264;11.918;2024-02-15T05:23:22;27.83;;;13.95;;
40945;SDS011;55635;50.264;11.918;2024-02-15T05:26:03;35.67;;;15.43;;
40945;SDS011;55635;50.264;11.918;2024-02-15T05:28:44;32.15;;;15.10;;
40945;SDS011;55635;50.264;11.918;2024-02-15T05:31:25;33.60;;;14.60;;
40945;SDS011;55635;50.264;11.918;2024-02-15T05:34:07;24.88;;;14.35;;
40945;SDS011;55635;50.264;11.918;2024-02-15T05:36:51;28.33;;;13.52;;
40945;SDS011;55635;50.264;11.918;2024-02-15T05:39:32;24.67;;;13.23;;
40945;SDS011;55635;50.264;11.918;2024-02-15T05:42:14;20.63;;;12.82;;
40945;SDS011;55635;50.264;11.918;2024-02-15T05:44:55;21.02;;;11.73;;
40945;SDS011;55635;50.264;11.918;2024-02-15T05:50:35;21.77;;;11.88;;
40945;SDS011;55635;50.264;11.918;2024-02-15T05:53:16;21.58;;;11.35;;
40945;SDS011;55635;50.264;11.918;2024-02-15T05:55:58;15.10;;;10.80;;
40945;SDS011;55635;50.264;11.918;2024-02-15T05:58:39;21.17;;;11.43;;
40945;SDS011;55635;50.264;11.918;2024-02-15T06:01:20;14.32;;;9.25;;
40945;SDS011;55635;50.264;11.918;2024-02-15T06:04:01;15.90;;;9.63;;
40945;SDS011;55635;50.264;11.918;2024-02-15T06:06:45;16.08;;;9.77;;
40945;SDS011;55635;50.264;11.918;2024-02-15T06:09:29;19.30;;;11.27;;
40945;SDS011;55635;50.264;11.918;2024-02-15T06:12:13;28.88;;;13.15;;
40945;SDS011;55635;50.264;11.918;2024-02-15T06:14:54;25.67;;;13.50;;
40945;SDS011;55635;50.264;11.918;2024-02-15T06:17:37;27.38;;;12.98;;
40945;SDS011;55635;50.264;11.918;2024-02-15T06:20:18;23.48;;;12.35;;
40945;SDS011;55635;50.264;11.918;2024-02-15T06:23:00;33.67;;;14.05;;
40945;SDS011;55635;50.264;11.918;2024-02-15T06:25:46;27.02;;;12.18;;
40945;SDS011;55635;50.264;11.918;2024-02-15T06:28:31;23.60;;;10.88;;
40945;SDS011;55635;50.264;11.918;2024-02-15T06:34:30;20.05;;;10.27;;
40945;SDS011;55635;50.264;11.918;2024-02-15T06:37:36;21.42;;;10.50;;
40945;SDS011;55635;50.264;11.918;2024-02-15T06:40:37;17.42;;;10.10;;
40945;SDS011;55635;50.264;11.918;2024-02-15T06:43:17;16.17;;;10.15;;
40945;SDS011;55635;50.264;11.918;2024-02-15T06:45:59;19.08;;;10.40;;
40945;SDS011;55635;50.264;11.918;2024-02-15T06:48:43;20.70;;;10.88;;
40945;SDS011;55635;50.264;11.918;2024-02-15T06:51:24;18.20;;;10.35;;
40945;SDS011;55635;50.264;11.918;2024-02-15T06:54:05;19.27;;;10.05;;
40945;SDS011;55635;50.264;11.918;2024-02-15T06:56:47;17.80;;;9.63;;
40945;SDS011;55635;50.264;11.918;2024-02-15T06:59:28;19.85;;;10.18;;
40945;SDS011;55635;50.264;11.918;2024-02-15T07:02:09;16.23;;;9.48;;
40945;SDS011;55635;50.264;11.918;2024-02-15T07:04:53;17.00;;;9.15;;
40945;SDS011;55635;50.264;11.918;2024-02-15T07:07:34;19.73;;;10.63;;
40945;SDS011;55635;50.264;11.918;2024-02-15T07:10:15;16.88;;;10.30;;
40945;SDS011;55635;50.264;11.918;2024-02-15T07:12:59;18.13;;;10.40;;
40945;SDS011;55635;50.264;11.918;2024-02-15T07:15:40;20.85;;;11.35;;
40945;SDS011;55635;50.264;11.918;2024-02-15T07:18:22;17.63;;;9.73;;
40945;SDS011;55635;50.264;11.918;2024-02-15T07:21:04;20.67;;;9.63;;
40945;SDS011;55635;50.264;11.918;2024-02-15T07:23:51;13.63;;;9.63;;
40945;SDS011;55635;50.264;11.918;2024-02-15T07:26:36;13.30;;;9.23;;
40945;SDS011;55635;50.264;11.918;2024-02-15T07:29:17;18.23;;;9.55;;
40945;SDS011;55635;50.264;11.918;2024-02-15T07:31:58;14.63;;;9.40;;
40945;SDS011;55635;50.264;11.918;2024-02-15T07:34:44;17.65;;;9.55;;
40945;SDS011;55635;50.264;11.918;2024-02-15T07:37:25;13.55;;;9.18;;
40945;SDS011;55635;50.264;11.918;2024-02-15T07:40:06;14.35;;;10.00;;
40945;SDS011;55635;50.264;11.918;2024-02-15T07:42:48;20.17;;;11.10;;
40945;SDS011;55635;50.264;11.918;2024-02-15T07:45:32;17.73;;;10.40;;
40945;SDS011;55635;50.264;11.918;2024-02-15T07:48:16;22.23;;;12.50;;
40945;SDS011;55635;50.264;11.918;2024-02-15T07:50:57;21.67;;;12.57;;
40945;SDS011;55635;50.264;11.918;2024-02-15T07:53:39;27.95;;;12.85;;
40945;SDS011;55635;50.264;11.918;2024-02-15T07:56:20;24.23;;;12.88;;
40945;SDS011;55635;50.264;11.918;2024-02-15T07:59:01;21.80;;;12.07;;
40945;SDS011;55635;50.264;11.918;2024-02-15T08:01:43;24.52;;;11.25;;
40945;SDS011;55635;50.264;11.918;2024-02-15T08:04:26;24.85;;;13.63;;
40945;SDS011;55635;50.264;11.918;2024-02-15T08:07:08;24.60;;;12.93;;
40945;SDS011;55635;50.264;11.918;2024-02-15T08:09:50;23.27;;;12.85;;
40945;SDS011;55635;50.264;11.918;2024-02-15T08:12:31;22.83;;;12.57;;
40945;SDS011;55635;50.264;11.918;2024-02-15T08:15:13;17.45;;;12.35;;
40945;SDS011;55635;50.264;11.918;2024-02-15T08:17:53;23.40;;;12.00;;
40945;SDS011;55635;50.264;11.918;2024-02-15T08:20:35;20.50;;;12.30;;
40945;SDS011;55635;50.264;11.918;2024-02-15T08:23:16;19.15;;;12.20;;
40945;SDS011;55635;50.264;11.918;2024-02-15T08:25:57;21.90;;;12.38;;
40945;SDS011;55635;50.264;11.918;2024-02-15T08:28:39;18.50;;;11.95;;
40945;SDS011;55635;50.264;11.918;2024-02-15T08:31:20;18.20;;;12.30;;
40945;SDS011;55635;50.264;11.918;2024-02-15T08:34:04;20.48;;;13.07;;
40945;SDS011;55635;50.264;11.918;2024-02-15T08:39:31;22.17;;;12.95;;
40945;SDS011;55635;50.264;11.918;2024-02-15T08:42:13;19.35;;;12.25;;
40945;SDS011;55635;50.264;11.918;2024-02-15T08:44:54;22.20;;;13.95;;
40945;SDS011;55635;50.264;11.918;2024-02-15T08:47:36;21.50;;;13.48;;
40945;SDS011;55635;50.264;11.918;2024-02-15T08:50:21;17.92;;;12.75;;
40945;SDS011;55635;50.264;11.918;2024-02-15T08:53:03;18.23;;;12.18;;
40945;SDS011;55635;50.264;11.918;2024-02-15T08:55:48;19.50;;;12.68;;
40945;SDS011;55635;50.264;11.918;2024-02-15T08:58:29;19.38;;;13.40;;
40945;SDS011;55635;50.264;11.918;2024-02-15T09:01:10;22.67;;;12.63;;
40945;SDS011;55635;50.264;11.918;2024-02-15T09:03:53;18.02;;;12.05;;
40945;SDS011;55635;50.264;11.918;2024-02-15T09:06:34;20.17;;;12.15;;
40945;SDS011;55635;50.264;11.918;2024-02-15T09:09:15;17.70;;;11.30;;
40945;SDS011;55635;50.264;11.918;2024-02-15T09:11:57;19.30;;;12.05;;
40945;SDS011;55635;50.264;11.918;2024-02-15T09:14:40;18.17;;;12.95;;
40945;SDS011;55635;50.264;11.918;2024-02-15T09:17:21;21.13;;;13.45;;
40945;SDS011;55635;50.264;11.918;2024-02-15T09:20:03;20.10;;;12.75;;
40945;SDS011;55635;50.264;11.918;2024-02-15T09:23:05;19.35;;;13.02;;
40945;SDS011;55635;50.264;11.918;2024-02-15T09:25:49;24.30;;;12.23;;
40945;SDS011;55635;50.264;11.918;2024-02-15T09:28:33;17.20;;;12.15;;
40945;SDS011;55635;50.264;11.918;2024-02-15T09:31:15;21.13;;;12.63;;
40945;SDS011;55635;50.264;11.918;2024-02-15T09:33:56;21.92;;;12.88;;
40945;SDS011;55635;50.264;11.918;2024-02-15T09:36:38;19.23;;;13.63;;
40945;SDS011;55635;50.264;11.918;2024-02-15T09:39:19;21.67;;;12.90;;
40945;SDS011;55635;50.264;11.918;2024-02-15T09:42:01;23.88;;;12.73;;
40945;SDS011;55635;50.264;11.918;2024-02-15T09:44:42;20.85;;;11.80;;
40945;SDS011;55635;50.264;11.918;2024-02-15T09:47:24;22.83;;;12.75;;
40945;SDS011;55635;50.264;11.918;2024-02-15T09:50:10;15.75;;;11.57;;
40945;SDS011;55635;50.264;11.918;2024-02-15T09:52:55;18.85;;;11.45;;
40945;SDS011;55635;50.264;11.918;2024-02-15T09:55:39;24.45;;;11.02;;
40945;SDS011;55635;50.264;11.918;2024-02-15T09:58:23;19.25;;;12.38;;
40945;SDS011;55635;50.264;11.918;2024-02-15T10:01:04;16.20;;;10.57;;
40945;SDS011;55635;50.264;11.918;2024-02-15T10:03:49;16.85;;;10.95;;
40945;SDS011;55635;50.264;11.918;2024-02-15T10:06:33;19.30;;;12.00;;
40945;SDS011;55635;50.264;11.918;2024-02-15T10:09:24;17.70;;;11.75;;
40945;SDS011;55635;50.264;11.918;2024-02-15T10:12:10;17.20;;;11.85;;
40945;SDS011;55635;50.264;11.918;2024-02-15T10:14:51;17.63;;;11.35;;
40945;SDS011;55635;50.264;11.918;2024-02-15T10:17:32;14.90;;;9.55;;
40945;SDS011;55635;50.264;11.918;2024-02-15T10:20:15;11.70;;;8.90;;
40945;SDS011;55635;50.264;11.918;2024-02-15T10:25:40;11.55;;;8.23;;
40945;SDS011;55635;50.264;11.918;2024-02-15T10:28:21;13.05;;;8.48;;
40945;SDS011;55635;50.264;11.918;2024-02-15T10:31:07;14.48;;;7.68;;
40945;SDS011;55635;50.264;11.918;2024-02-15T10:33:52;12.45;;;8.18;;
40945;SDS011;55635;50.264;11.918;2024-02-15T10:36:34;12.93;;;7.65;;
40945;SDS011;55635;50.264;11.918;2024-02-15T10:39:16;10.95;;;6.85;;
40945;SDS011;55635;50.264;11.918;2024-02-15T10:41:59;10.02;;;7.20;;
40945;SDS011;55635;50.264;11.918;2024-02-15T10:44:43;11.40;;;7.35;;
40945;SDS011;55635;50.264;11.918;2024-02-15T10:47:25;6.70;;;6.03;;
40945;SDS011;55635;50.264;11.918;2024-02-15T10:50:07;8.45;;;6.38;;
40945;SDS011;55635;50.264;11.918;2024-02-15T10:52:53;7.57;;;6.60;;
40945;SDS011;55635;50.264;11.918;2024-02-15T10:55:53;9.10;;;6.03;;
40945;SDS011;55635;50.264;11.918;2024-02-15T10:59:08;7.75;;;5.38;;
40945;SDS011;55635;50.264;11.918;2024-02-15T11:01:59;10.15;;;4.80;;
40945;SDS011;55635;50.264;11.918;2024-02-15T11:04:52;6.70;;;4.15;;
40945;SDS011;55635;50.264;11.918;2024-02-15T11:07:36;6.75;;;4.43;;
40945;SDS011;55635;50.264;11.918;2024-02-15T11:10:19;6.70;;;5.22;;
40945;SDS011;55635;50.264;11.918;2024-02-15T11:13:00;8.52;;;5.45;;
40945;SDS011;55635;50.264;11.918;2024-02-15T11:15:42;6.88;;;4.88;;
40945;SDS011;55635;50.264;11.918;2024-02-15T11:18:45;10.15;;;5.15;;
40945;SDS011;55635;50.264;11.918;2024-02-15T11:24:37;6.28;;;5.68;;
40945;SDS011;55635;50.264;11.918;2024-02-15T11:27:30;10.85;;;5.97;;
40945;SDS011;55635;50.264;11.918;2024-02-15T11:30:12;8.90;;;5.22;;
40945;SDS011;55635;50.264;11.918;2024-02-15T11:36:15;7.70;;;5.63;;
40945;SDS011;55635;50.264;11.918;2024-02-15T11:38:57;8.10;;;5.80;;
40945;SDS011;55635;50.264;11.918;2024-02-15T11:41:38;6.90;;;5.85;;
40945;SDS011;55635;50.264;11.918;2024-02-15T11:44:19;7.97;;;5.43;;
40945;SDS011;55635;50.264;11.918;2024-02-15T11:47:03;6.18;;;5.57;;
40945;SDS011;55635;50.264;11.918;2024-02-15T11:49:44;5.53;;;4.57;;
40945;SDS011;55635;50.264;11.918;2024-02-15T11:52:26;6.07;;;4.70;;
40945;SDS011;55635;50.264;11.918;2024-02-15T11:55:08;6.93;;;4.70;;
40945;SDS011;55635;50.264;11.918;2024-02-15T12:00:49;5.88;;;4.32;;
40945;SDS011;55635;50.264;11.918;2024-02-15T12:03:52;5.35;;;3.92;;
40945;SDS011;55635;50.264;11.918;2024-02-15T12:06:57;6.57;;;3.45;;
40945;SDS011;55635;50.264;11.918;2024-02-15T12:10:00;8.55;;;3.72;;
40945;SDS011;55635;50.264;11.918;2024-02-15T12:13:00;7.45;;;3.70;;
40945;SDS011;55635;50.264;11.918;2024-02-15T12:15:59;6.28;;;3.75;;
40945;SDS011;55635;50.264;11.918;2024-02-15T12:18:59;5.97;;;4.47;;
40945;SDS011;55635;50.264;11.918;2024-02-15T12:21:40;8.55;;;4.20;;
40945;SDS011;55635;50.264;11.918;2024-02-15T12:24:21;5.70;;;3.88;;
40945;SDS011;55635;50.264;11.918;2024-02-15T12:27:07;4.70;;;3.35;;
40945;SDS011;55635;50.264;11.918;2024-02-15T12:29:54;7.25;;;4.00;;
40945;SDS011;55635;50.264;11.918;2024-02-15T12:32:39;6.28;;;4.00;;
40945;SDS011;55635;50.264;11.918;2024-02-15T12:35:21;5.70;;;4.13;;
40945;SDS011;55635;50.264;11.918;2024-02-15T12:38:04;11.45;;;4.40;;
40945;SDS011;55635;50.264;11.918;2024-02-15T12:40:49;6.57;;;3.20;;
40945;SDS011;55635;50.264;11.918;2024-02-15T12:43:30;4.68;;;3.88;;
40945;SDS011;55635;50.264;11.918;2024-02-15T12:46:11;7.53;;;4.43;;
40945;SDS011;55635;50.264;11.918;2024-02-15T12:49:05;6.45;;;3.67;;
40945;SDS011;55635;50.264;11.918;2024-02-15T12:55:20;4.20;;;3.03;;
40945;SDS011;55635;50.264;11.918;2024-02-15T12:58:05;3.95;;;2.97;;
40945;SDS011;55635;50.264;11.918;2024-02-15T13:00:55;4.65;;;2.90;;
40945;SDS011;55635;50.264;11.918;2024-02-15T13:03:39;3.58;;;3.13;;
40945;SDS011;55635;50.264;11.918;2024-02-15T13:06:20;5.70;;;2.83;;
40945;SDS011;55635;50.264;11.918;2024-02-15T13:09:04;5.90;;;3.17;;
40945;SDS011;55635;50.264;11.918;2024-02-15T13:11:46;3.28;;;2.17;;
40945;SDS011;55635;50.264;11.918;2024-02-15T13:14:27;4.80;;;2.60;;
40945;SDS011;55635;50.264;11.918;2024-02-15T13:17:09;4.65;;;2.47;;
40945;SDS011;55635;50.264;11.918;2024-02-15T13:19:50;5.10;;;2.35;;
40945;SDS011;55635;50.264;11.918;2024-02-15T13:22:31;4.80;;;2.83;;
40945;SDS011;55635;50.264;11.918;2024-02-15T13:25:13;3.83;;;2.33;;
40945;SDS011;55635;50.264;11.918;2024-02-15T13:27:56;2.83;;;1.77;;
40945;SDS011;55635;50.264;11.918;2024-02-15T13:30:37;3.40;;;1.67;;
40945;SDS011;55635;50.264;11.918;2024-02-15T13:33:18;1.63;;;1.52;;
40945;SDS011;55635;50.264;11.918;2024-02-15T13:36:00;3.42;;;1.63;;
40945;SDS011;55635;50.264;11.918;2024-02-15T13:38:42;4.38;;;1.63;;
40945;SDS011;55635;50.264;11.918;2024-02-15T13:41:22;3.53;;;1.70;;
40945;SDS011;55635;50.264;11.918;2024-02-15T13:44:03;3.72;;;2.20;;
40945;SDS011;55635;50.264;11.918;2024-02-15T13:46:45;2.72;;;1.85;;
40945;SDS011;55635;50.264;11.918;2024-02-15T13:49:26;2.42;;;1.55;;
40945;SDS011;55635;50.264;11.918;2024-02-15T13:52:10;3.47;;;1.90;;
40945;SDS011;55635;50.264;11.918;2024-02-15T13:54:51;3.20;;;1.90;;
40945;SDS011;55635;50.264;11.918;2024-02-15T13:57:33;3.60;;;1.70;;
40945;SDS011;55635;50.264;11.918;2024-02-15T14:00:14;5.20;;;1.70;;
40945;SDS011;55635;50.264;11.918;2024-02-15T14:03:02;3.25;;;1.50;;
40945;SDS011;55635;50.264;11.918;2024-02-15T14:05:46;2.08;;;1.60;;
40945;SDS011;55635;50.264;11.918;2024-02-15T14:08:28;2.83;;;1.25;;
40945;SDS011;55635;50.264;11.918;2024-02-15T14:11:08;2.53;;;0.98;;
40945;SDS011;55635;50.264;11.918;2024-02-15T14:13:50;2.75;;;1.38;;
40945;SDS011;55635;50.264;11.918;2024-02-15T14:16:38;5.50;;;1.45;;
40945;SDS011;55635;50.264;11.918;2024-02-15T14:19:19;2.42;;;1.33;;
40945;SDS011;55635;50.264;11.918;2024-02-15T14:22:01;1.65;;;1.20;;
40945;SDS011;55635;50.264;11.918;2024-02-15T14:24:42;1.83;;;1.30;;
40945;SDS011;55635;50.264;11.918;2024-02-15T14:27:26;2.83;;;1.25;;
40945;SDS011;55635;50.264;11.918;2024-02-15T14:30:07;3.38;;;1.08;;
40945;SDS011;55635;50.264;11.918;2024-02-15T14:33:07;3.53;;;1.10;;
40945;SDS011;55635;50.264;11.918;2024-02-15T14:35:51;1.17;;;1.08;;
40945;SDS011;55635;50.264;11.918;2024-02-15T14:38:33;1.75;;;0.70;;
40945;SDS011;55635;50.264;11.918;2024-02-15T14:41:14;3.35;;;0.98;;
40945;SDS011;55635;50.264;11.918;2024-02-15T14:43:56;0.90;;;0.80;;
40945;SDS011;55635;50.264;11.918;2024-02-15T14:46:37;1.25;;;0.60;;
40945;SDS011;55635;50.264;11.918;2024-02-15T14:49:18;1.88;;;0.88;;
40945;SDS011;55635;50.264;11.918;2024-02-15T14:51:59;1.05;;;0.60;;
40945;SDS011;55635;50.264;11.918;2024-02-15T14:54:41;0.95;;;0.65;;
40945;SDS011;55635;50.264;11.918;2024-02-15T14:57:22;0.70;;;0.70;;
40945;SDS011;55635;50.264;11.918;2024-02-15T15:00:05;3.05;;;0.90;;
40945;SDS011;55635;50.264;11.918;2024-02-15T15:02:58;2.65;;;1.00;;
40945;SDS011;55635;50.264;11.918;2024-02-15T15:05:39;1.95;;;1.10;;
40945;SDS011;55635;50.264;11.918;2024-02-15T15:08:39;2.83;;;1.05;;
40945;SDS011;55635;50.264;11.918;2024-02-15T15:11:38;1.33;;;0.70;;
40945;SDS011;55635;50.264;11.918;2024-02-15T15:14:38;1.60;;;0.65;;
40945;SDS011;55635;50.264;11.918;2024-02-15T15:17:19;2.20;;;0.70;;
40945;SDS011;55635;50.264;11.918;2024-02-15T15:20:01;1.20;;;0.70;;
40945;SDS011;55635;50.264;11.918;2024-02-15T15:22:42;1.05;;;0.90;;
40945;SDS011;55635;50.264;11.918;2024-02-15T15:25:24;1.63;;;0.80;;
40945;SDS011;55635;50.264;11.918;2024-02-15T15:28:08;4.57;;;1.38;;
40945;SDS011;55635;50.264;11.918;2024-02-15T15:30:49;1.85;;;1.17;;
40945;SDS011;55635;50.264;11.918;2024-02-15T15:33:30;1.63;;;0.90;;
40945;SDS011;55635;50.264;11.918;2024-02-15T15:36:13;2.33;;;1.00;;
40945;SDS011;55635;50.264;11.918;2024-02-15T15:38:57;1.13;;;0.95;;
40945;SDS011;55635;50.264;11.918;2024-02-15T15:41:38;2.92;;;1.00;;
40945;SDS011;55635;50.264;11.918;2024-02-15T15:44:19;3.35;;;1.20;;
40945;SDS011;55635;50.264;11.918;2024-02-15T15:47:02;0.90;;;0.80;;
40945;SDS011;55635;50.264;11.918;2024-02-15T15:49:44;1.25;;;1.10;;
40945;SDS011;55635;50.264;11.918;2024-02-15T15:52:25;1.45;;;1.00;;
40945;SDS011;55635;50.264;11.918;2024-02-15T15:55:07;1.33;;;1.05;;
40945;SDS011;55635;50.264;11.918;2024-02-15T15:57:51;1.92;;;1.20;;
40945;SDS011;55635;50.264;11.918;2024-02-15T16:00:33;2.63;;;1.52;;
40945;SDS011;55635;50.264;11.918;2024-02-15T16:03:15;2.80;;;2.38;;
40945;SDS011;55635;50.264;11.918;2024-02-15T16:05:56;2.42;;;1.23;;
40945;SDS011;55635;50.264;11.918;2024-02-15T16:08:37;1.83;;;1.30;;
40945;SDS011;55635;50.264;11.918;2024-02-15T16:11:18;1.30;;;1.10;;
40945;SDS011;55635;50.264;11.918;2024-02-15T16:13:59;2.00;;;1.27;;
40945;SDS011;55635;50.264;11.918;2024-02-15T16:16:41;1.95;;;1.40;;
40945;SDS011;55635;50.264;11.918;2024-02-15T16:19:23;2.08;;;1.27;;
40945;SDS011;55635;50.264;11.918;2024-02-15T16:22:05;3.58;;;1.20;;